Time;durP1;ratioP1;P1;durP2;ratioP2;P2;SDS_P1;SDS_P2;PMS_P1;PMS_P2;Temp;Humidity;BMP_temperature;BMP_pressure;BME280_temperature;BME280_humidity;BME280_pressure;Samples;Min_cycle;Max_cycle;Signal;HPM_P1;HPM_P2
2022/03/07 00:01:37;;;;;;;8.15;1.73;;;21.90;99.90;;;;;;5093471;28;20016;-78
2022/03/07 00:04:05;;;;;;;5.55;1.50;;;21.90;99.90;;;;;;5093461;28;20023;-77
2022/03/07 00:06:33;;;;;;;6.75;1.25;;;21.90;99.90;;;;;;5093368;28;20026;-76
2022/03/07 00:09:00;;;;;;;3.03;1.38;;;21.90;99.90;;;;;;5090499;28;20032;-76
2022/03/07 00:11:28;;;;;;;3.33;0.90;;;21.90;99.90;;;;;;5093224;28;20055;-76
2022/03/07 00:13:56;;;;;;;3.63;1.25;;;21.80;99.90;;;;;;5093049;28;20043;-81
2022/03/07 00:16:24;;;;;;;4.55;1.38;;;21.80;99.90;;;;;;5093242;28;20024;-76
2022/03/07 00:18:52;;;;;;;3.47;0.90;;;21.80;99.90;;;;;;5110982;28;20027;-77
2022/03/07 00:21:20;;;;;;;5.40;1.30;;;21.70;99.90;;;;;;5109620;28;20358;-78
2022/03/07 00:23:48;;;;;;;3.38;1.15;;;21.70;99.90;;;;;;5099519;28;20020;-77
2022/03/07 00:26:17;;;;;;;3.47;1.00;;;21.70;99.90;;;;;;5099509;28;20043;-77
2022/03/07 00:28:46;;;;;;;1.52;0.75;;;21.80;99.90;;;;;;5099648;28;20540;-78
2022/03/07 00:31:14;;;;;;;4.05;1.38;;;21.80;99.90;;;;;;5097539;28;20028;-78
2022/03/07 00:33:42;;;;;;;4.93;1.17;;;21.90;99.90;;;;;;5093176;28;20051;-78
2022/03/07 00:36:09;;;;;;;2.95;1.10;;;21.90;99.90;;;;;;5092595;28;20028;-74
2022/03/07 00:38:37;;;;;;;10.63;1.85;;;21.90;99.90;;;;;;5089020;28;20027;-78
2022/03/07 00:41:04;;;;;;;7.28;1.38;;;22.00;99.90;;;;;;5092500;28;20016;-77
2022/03/07 00:43:32;;;;;;;8.40;1.27;;;22.00;99.90;;;;;;5092251;28;20038;-77
2022/03/07 00:45:59;;;;;;;1.83;1.00;;;21.90;99.90;;;;;;5093460;28;20514;-77
2022/03/07 00:48:26;;;;;;;4.38;0.82;;;21.90;99.90;;;;;;5092755;28;20473;-75
2022/03/07 00:50:54;;;;;;;3.95;0.93;;;21.80;99.90;;;;;;5093802;28;20028;-76
2022/03/07 00:53:23;;;;;;;1.58;0.77;;;21.70;99.90;;;;;;5097082;28;20032;-75
2022/03/07 00:55:52;;;;;;;3.53;1.02;;;21.80;99.90;;;;;;5096526;28;20069;-75
2022/03/07 00:58:20;;;;;;;3.97;1.17;;;21.80;99.90;;;;;;5093601;28;20075;-79
2022/03/07 01:00:48;;;;;;;2.10;0.95;;;22.00;99.90;;;;;;5096952;28;20419;-76
2022/03/07 01:03:16;;;;;;;4.00;1.00;;;22.10;99.90;;;;;;5095936;28;20070;-75
2022/03/07 01:05:44;;;;;;;3.30;1.25;;;22.20;99.90;;;;;;5094891;28;20065;-75
2022/03/07 01:08:12;;;;;;;1.85;0.93;;;22.20;99.90;;;;;;5094696;28;20157;-76
2022/03/07 01:10:39;;;;;;;2.17;0.73;;;22.20;99.90;;;;;;5092309;28;20095;-77
2022/03/07 01:13:08;;;;;;;3.72;1.02;;;22.20;99.90;;;;;;5094737;28;20028;-77
2022/03/07 01:15:35;;;;;;;2.40;1.00;;;22.20;99.90;;;;;;5094743;28;20020;-75
2022/03/07 01:18:04;;;;;;;10.32;1.10;;;22.20;99.90;;;;;;5095481;28;20061;-76
2022/03/07 01:20:31;;;;;;;2.67;0.95;;;22.20;99.90;;;;;;5093026;28;20081;-76
2022/03/07 01:22:59;;;;;;;3.33;1.38;;;22.20;99.90;;;;;;5091696;28;20534;-82
2022/03/07 01:25:26;;;;;;;1.95;0.70;;;22.20;99.90;;;;;;5093677;28;20463;-76
2022/03/07 01:27:54;;;;;;;0.73;0.40;;;22.20;99.90;;;;;;5094946;28;20156;-79
2022/03/07 01:30:21;;;;;;;1.83;0.90;;;22.30;99.90;;;;;;5095140;28;20093;-78
2022/03/07 01:32:52;;;;;;;4.50;0.98;;;22.30;99.90;;;;;;5093729;28;20024;-76
2022/03/07 01:35:20;;;;;;;2.53;1.10;;;22.30;99.90;;;;;;5092440;28;20028;-77
2022/03/07 01:37:48;;;;;;;2.05;0.90;;;22.40;99.90;;;;;;5094665;28;20024;-76
2022/03/07 01:40:15;;;;;;;1.70;1.02;;;22.40;99.90;;;;;;5094743;28;20019;-77
2022/03/07 01:42:43;;;;;;;4.97;1.45;;;22.50;99.90;;;;;;5094903;28;20032;-76
2022/03/07 01:45:13;;;;;;;3.63;1.10;;;22.60;99.90;;;;;;5095360;28;20020;-75
2022/03/07 01:47:40;;;;;;;3.58;1.27;;;22.70;99.90;;;;;;5093450;28;20012;-77
2022/03/07 01:50:10;;;;;;;2.80;1.40;;;22.80;99.90;;;;;;5095957;28;20051;-75
2022/03/07 01:52:47;;;;;;;4.40;1.17;;;22.90;99.90;;;;;;5093507;28;20023;-76
2022/03/07 01:55:15;;;;;;;3.95;1.25;;;23.00;99.90;;;;;;5096046;28;20031;-77
2022/03/07 01:57:45;;;;;;;2.63;0.77;;;23.10;99.90;;;;;;5094467;28;20107;-76
2022/03/07 02:00:16;;;;;;;5.22;1.25;;;23.20;99.90;;;;;;5095856;28;20023;-76
2022/03/07 02:02:44;;;;;;;4.93;1.40;;;23.20;99.90;;;;;;5093258;28;20088;-76
2022/03/07 02:05:12;;;;;;;2.97;1.15;;;23.30;99.90;;;;;;5095884;28;20053;-76
2022/03/07 02:07:39;;;;;;;7.10;2.17;;;23.40;99.90;;;;;;5093036;28;20025;-78
2022/03/07 02:10:08;;;;;;;6.63;1.63;;;23.40;99.90;;;;;;5095657;28;20039;-77
2022/03/07 02:12:36;;;;;;;3.33;0.77;;;23.30;99.90;;;;;;5095550;28;20074;-76
2022/03/07 02:15:05;;;;;;;5.30;1.52;;;23.20;99.90;;;;;;5095779;28;20020;-76
2022/03/07 02:17:32;;;;;;;5.30;1.60;;;23.10;99.90;;;;;;5095389;28;20465;-75
2022/03/07 02:20:00;;;;;;;5.70;1.70;;;23.10;99.90;;;;;;5093128;28;20081;-76
2022/03/07 02:22:27;;;;;;;4.65;2.05;;;23.10;99.90;;;;;;5095554;28;20020;-75
2022/03/07 02:24:54;;;;;;;4.50;2.05;;;23.00;99.90;;;;;;5095294;28;20028;-75
2022/03/07 02:27:22;;;;;;;3.53;1.38;;;23.00;99.90;;;;;;5095066;28;20020;-75
2022/03/07 02:29:50;;;;;;;9.88;2.25;;;23.10;99.90;;;;;;5095235;28;20037;-80
2022/03/07 02:32:17;;;;;;;8.40;1.65;;;23.20;99.90;;;;;;5095203;28;20425;-75
2022/03/07 02:34:45;;;;;;;6.35;1.67;;;23.30;99.90;;;;;;5095221;28;20016;-79
2022/03/07 02:37:12;;;;;;;17.27;2.28;;;23.40;99.90;;;;;;5093461;28;20027;-79
2022/03/07 02:39:39;;;;;;;6.68;2.05;;;23.60;99.90;;;;;;5091102;28;20051;-75
2022/03/07 02:42:07;;;;;;;9.70;1.80;;;23.60;99.90;;;;;;5094936;28;20095;-76
2022/03/07 02:44:34;;;;;;;7.85;2.58;;;23.60;99.90;;;;;;5094874;28;20504;-80
2022/03/07 02:47:01;;;;;;;5.60;1.42;;;23.50;99.90;;;;;;5094070;28;20024;-83
2022/03/07 02:49:29;;;;;;;4.35;1.80;;;23.50;99.90;;;;;;5093460;28;20072;-83
2022/03/07 02:51:56;;;;;;;7.50;1.83;;;23.50;99.90;;;;;;5092258;28;20430;-83
2022/03/07 02:54:23;;;;;;;10.38;2.28;;;23.60;99.90;;;;;;5094214;28;20024;-81
2022/03/07 02:56:51;;;;;;;7.10;2.22;;;23.80;99.90;;;;;;5094676;28;20020;-77
2022/03/07 02:59:18;;;;;;;6.82;1.85;;;23.80;99.90;;;;;;5091982;28;20028;-79
2022/03/07 03:01:45;;;;;;;4.53;1.70;;;23.70;99.90;;;;;;5094805;28;20039;-82
2022/03/07 03:04:13;;;;;;;8.30;1.85;;;23.70;99.90;;;;;;5094694;28;20047;-76
2022/03/07 03:06:41;;;;;;;5.20;1.05;;;23.70;99.90;;;;;;5091972;28;20044;-80
2022/03/07 03:09:09;;;;;;;7.95;2.38;;;23.80;99.90;;;;;;5094490;28;20024;-85
2022/03/07 03:11:37;;;;;;;9.30;2.25;;;23.70;99.90;;;;;;5094562;28;20039;-81
2022/03/07 03:14:06;;;;;;;8.15;2.00;;;23.70;99.90;;;;;;5093484;28;20020;-83
2022/03/07 03:16:34;;;;;;;7.50;1.75;;;23.70;99.90;;;;;;5092525;28;20381;-77
2022/03/07 03:19:02;;;;;;;6.53;1.88;;;23.80;99.90;;;;;;5092435;28;20042;-81
2022/03/07 03:21:30;;;;;;;3.83;1.38;;;23.80;99.90;;;;;;5094155;28;20414;-84
2022/03/07 03:23:57;;;;;;;6.45;1.73;;;23.80;99.90;;;;;;5094293;28;20098;-82
2022/03/07 03:26:25;;;;;;;7.07;2.05;;;23.80;99.90;;;;;;5092565;28;20024;-81
2022/03/07 03:28:52;;;;;;;9.23;1.48;;;23.90;99.90;;;;;;5093760;28;20484;-83
2022/03/07 03:31:19;;;;;;;8.23;1.95;;;23.90;99.90;;;;;;5092865;28;20424;-82
2022/03/07 03:33:48;;;;;;;10.38;1.45;;;23.90;99.90;;;;;;5093495;28;20034;-84
2022/03/07 03:36:15;;;;;;;7.30;1.88;;;23.90;99.90;;;;;;5093655;28;20008;-83
2022/03/07 03:38:42;;;;;;;10.13;2.38;;;23.80;99.90;;;;;;5093323;28;20040;-84
2022/03/07 03:41:10;;;;;;;8.32;2.28;;;23.80;99.90;;;;;;5093523;28;20101;-83
2022/03/07 03:43:37;;;;;;;10.82;1.85;;;23.70;99.90;;;;;;5093515;28;20480;-84
2022/03/07 03:46:04;;;;;;;8.52;1.50;;;23.70;99.90;;;;;;5092908;28;20099;-81
2022/03/07 03:48:32;;;;;;;10.23;2.17;;;23.70;99.90;;;;;;5093074;28;20121;-85
2022/03/07 03:50:59;;;;;;;6.90;1.52;;;23.80;99.90;;;;;;5091169;28;20020;-84
2022/03/07 03:53:26;;;;;;;11.40;2.05;;;23.90;99.90;;;;;;5093328;28;20051;-85
2022/03/07 03:55:54;;;;;;;7.93;2.15;;;23.90;99.90;;;;;;5092920;28;20059;-84
2022/03/07 03:58:21;;;;;;;6.43;1.40;;;23.90;99.90;;;;;;5092874;28;20020;-85
2022/03/07 04:00:48;;;;;;;4.40;0.95;;;23.80;99.90;;;;;;5091303;28;20091;-82
2022/03/07 04:03:16;;;;;;;6.07;1.42;;;23.80;99.90;;;;;;5093243;28;20036;-85
2022/03/07 04:05:43;;;;;;;7.05;1.80;;;23.80;99.90;;;;;;5090854;28;20020;-84
2022/03/07 04:08:10;;;;;;;7.55;1.23;;;23.80;99.90;;;;;;5091865;28;20051;-80
2022/03/07 04:10:38;;;;;;;3.50;1.55;;;23.90;99.90;;;;;;5092026;28;20103;-82
2022/03/07 04:13:05;;;;;;;11.25;2.38;;;23.90;99.90;;;;;;5090959;28;20019;-83
2022/03/07 04:15:34;;;;;;;6.57;1.90;;;23.90;99.90;;;;;;5099995;28;20114;-84
2022/03/07 04:18:01;;;;;;;11.95;2.17;;;24.00;99.90;;;;;;5094592;28;20039;-86
2022/03/07 04:20:28;;;;;;;7.38;1.30;;;24.00;99.90;;;;;;5091638;28;20024;-80
2022/03/07 04:22:56;;;;;;;7.60;1.83;;;24.00;99.90;;;;;;5091256;28;20119;-81
2022/03/07 04:25:23;;;;;;;5.28;1.40;;;24.20;99.90;;;;;;5091431;28;20500;-85
2022/03/07 04:27:50;;;;;;;8.68;2.13;;;24.30;99.90;;;;;;5091689;28;20028;-86
2022/03/07 04:30:19;;;;;;;4.75;1.88;;;24.30;99.90;;;;;;5091498;28;20106;-85
2022/03/07 04:32:46;;;;;;;6.88;1.33;;;24.30;99.90;;;;;;5090299;28;20539;-86
2022/03/07 04:35:14;;;;;;;5.97;1.55;;;24.30;99.90;;;;;;5093236;28;20027;-83
2022/03/07 04:37:41;;;;;;;6.68;1.85;;;24.20;99.90;;;;;;5093400;28;20092;-84
2022/03/07 04:40:12;;;;;;;5.38;1.73;;;24.20;99.90;;;;;;5094034;28;20023;-87
2022/03/07 04:42:40;;;;;;;9.20;1.27;;;24.10;99.90;;;;;;5090358;28;20107;-86
2022/03/07 04:45:15;;;;;;;8.25;1.65;;;24.00;99.90;;;;;;5094039;28;20024;-87
2022/03/07 04:47:43;;;;;;;8.38;1.67;;;24.00;99.90;;;;;;5105379;28;20020;-79
2022/03/07 04:50:12;;;;;;;10.50;1.35;;;24.10;99.90;;;;;;5102065;28;20043;-82
2022/03/07 04:52:42;;;;;;;7.78;1.90;;;24.10;99.90;;;;;;5102678;28;20028;-85
2022/03/07 04:55:11;;;;;;;11.15;1.80;;;24.10;99.90;;;;;;5100340;28;20098;-87
2022/03/07 04:57:39;;;;;;;7.88;1.63;;;24.10;99.90;;;;;;5100229;28;20035;-87
2022/03/07 05:00:09;;;;;;;9.77;2.05;;;24.10;99.90;;;;;;5100115;28;20476;-78
2022/03/07 05:02:36;;;;;;;8.35;1.65;;;24.10;99.90;;;;;;5093065;28;20031;-82
2022/03/07 05:05:04;;;;;;;9.68;1.73;;;24.10;99.90;;;;;;5089089;28;20055;-82
2022/03/07 05:07:31;;;;;;;7.35;1.25;;;24.10;99.90;;;;;;5083949;28;20090;-86
2022/03/07 05:09:59;;;;;;;5.47;2.00;;;24.10;99.90;;;;;;5083309;28;20369;-80
2022/03/07 05:12:26;;;;;;;11.38;1.83;;;24.00;99.90;;;;;;5078731;28;20050;-79
2022/03/07 05:14:53;;;;;;;12.18;2.05;;;24.00;99.90;;;;;;5076743;28;20029;-81
2022/03/07 05:17:21;;;;;;;7.57;1.65;;;24.00;99.90;;;;;;5079082;28;20099;-81
2022/03/07 05:19:48;;;;;;;10.75;1.73;;;24.00;99.90;;;;;;5075258;28;20012;-81
2022/03/07 05:22:17;;;;;;;9.35;1.80;;;24.00;99.90;;;;;;5074238;28;20025;-82
2022/03/07 05:24:44;;;;;;;12.82;1.80;;;24.00;99.90;;;;;;5074941;28;20019;-79
2022/03/07 05:27:12;;;;;;;7.57;1.90;;;24.00;99.90;;;;;;5073320;28;20028;-81
2022/03/07 05:29:39;;;;;;;6.32;1.42;;;24.00;99.90;;;;;;5073319;28;20028;-81
2022/03/07 05:32:07;;;;;;;8.38;2.25;;;24.00;99.90;;;;;;5073475;28;20419;-80
2022/03/07 05:34:34;;;;;;;7.50;1.70;;;24.00;99.90;;;;;;5076050;28;20503;-84
2022/03/07 05:37:01;;;;;;;8.75;1.73;;;24.00;99.90;;;;;;5073466;28;20066;-79
2022/03/07 05:39:29;;;;;;;6.70;1.60;;;24.00;99.90;;;;;;5075852;28;20112;-84
2022/03/07 05:41:56;;;;;;;10.60;1.65;;;24.00;99.90;;;;;;5077951;28;20025;-82
2022/03/07 05:44:23;;;;;;;6.40;1.48;;;23.90;99.90;;;;;;5078895;28;20073;-78
2022/03/07 05:46:51;;;;;;;13.15;1.90;;;23.90;99.90;;;;;;5077531;28;20021;-80
2022/03/07 05:49:18;;;;;;;10.25;1.67;;;23.90;99.90;;;;;;5075389;28;20392;-78
2022/03/07 05:51:46;;;;;;;6.50;2.03;;;23.90;99.90;;;;;;5077047;28;20020;-79
2022/03/07 05:54:13;;;;;;;8.57;1.83;;;23.80;99.90;;;;;;5076787;28;20027;-85
2022/03/07 05:56:41;;;;;;;6.07;1.73;;;23.70;99.90;;;;;;5078864;28;20085;-76
2022/03/07 05:59:08;;;;;;;11.50;2.05;;;23.70;99.90;;;;;;5076771;28;20027;-81
2022/03/07 06:01:35;;;;;;;12.63;2.67;;;23.70;99.90;;;;;;5077002;28;20020;-82
2022/03/07 06:04:03;;;;;;;13.77;2.65;;;23.60;99.90;;;;;;5075472;28;20385;-77
2022/03/07 06:06:31;;;;;;;10.82;2.17;;;23.60;99.90;;;;;;5076569;28;20031;-79
2022/03/07 06:08:58;;;;;;;12.02;1.95;;;23.50;99.90;;;;;;5075971;28;20097;-80
2022/03/07 06:11:25;;;;;;;8.82;1.92;;;23.50;99.90;;;;;;5074548;28;20021;-83
2022/03/07 06:13:53;;;;;;;11.57;2.15;;;23.40;99.90;;;;;;5077326;28;20070;-81
2022/03/07 06:16:20;;;;;;;15.00;2.05;;;23.30;99.90;;;;;;5084106;28;20028;-78
2022/03/07 06:18:48;;;;;;;12.10;2.20;;;23.30;99.90;;;;;;5084203;28;20023;-78
2022/03/07 06:21:15;;;;;;;9.88;1.83;;;23.30;99.90;;;;;;5085322;28;20048;-85
2022/03/07 06:23:43;;;;;;;10.50;2.58;;;23.20;99.90;;;;;;5083451;28;20495;-84
2022/03/07 06:26:10;;;;;;;8.52;2.45;;;23.20;99.90;;;;;;5083840;28;20028;-85
2022/03/07 06:28:37;;;;;;;6.15;1.80;;;23.20;99.90;;;;;;5085265;28;20504;-79
2022/03/07 06:31:05;;;;;;;8.75;1.85;;;23.20;99.90;;;;;;5083810;28;20484;-80
2022/03/07 06:33:32;;;;;;;9.27;2.45;;;23.10;99.90;;;;;;5085727;28;20021;-86
2022/03/07 06:36:00;;;;;;;10.13;1.92;;;23.10;99.90;;;;;;5085126;28;20012;-78
2022/03/07 06:38:27;;;;;;;10.43;2.83;;;23.10;99.90;;;;;;5083477;28;20480;-80
2022/03/07 06:40:54;;;;;;;11.02;1.85;;;23.10;99.90;;;;;;5083379;28;20039;-85
2022/03/07 06:43:22;;;;;;;9.45;2.58;;;23.10;99.90;;;;;;5086292;28;20032;-77
2022/03/07 06:45:49;;;;;;;12.60;2.50;;;23.00;99.90;;;;;;5091945;28;20107;-76
2022/03/07 06:48:16;;;;;;;8.23;2.70;;;23.00;99.90;;;;;;5092168;28;20040;-75
2022/03/07 06:50:44;;;;;;;11.27;2.15;;;22.90;99.90;;;;;;5093909;28;20477;-75
2022/03/07 06:53:11;;;;;;;12.77;2.92;;;22.90;99.90;;;;;;5093064;28;20123;-75
2022/03/07 06:55:38;;;;;;;8.82;2.13;;;22.90;99.90;;;;;;5092934;28;20023;-76
2022/03/07 06:58:06;;;;;;;6.32;1.42;;;22.90;99.90;;;;;;5093353;28;20081;-74
2022/03/07 07:00:33;;;;;;;7.18;1.58;;;22.90;99.90;;;;;;5081182;28;20031;-78
2022/03/07 07:03:01;;;;;;;6.70;0.98;;;22.70;99.90;;;;;;5072570;28;20103;-79
2022/03/07 07:05:28;;;;;;;2.78;0.88;;;22.60;99.90;;;;;;5073565;28;20070;-76
2022/03/07 07:07:56;;;;;;;3.63;0.68;;;22.50;99.90;;;;;;5073726;28;20027;-80
2022/03/07 07:10:24;;;;;;;1.27;0.40;;;22.40;99.90;;;;;;5073743;28;20044;-76
2022/03/07 07:12:52;;;;;;;1.83;0.70;;;22.30;99.90;;;;;;5087483;28;20138;-81
2022/03/07 07:15:20;;;;;;;6.18;1.67;;;22.20;99.90;;;;;;5083520;28;20067;-82
2022/03/07 07:17:47;;;;;;;1.70;0.70;;;22.20;99.90;;;;;;5072769;28;20024;-82
2022/03/07 07:20:14;;;;;;;2.05;0.88;;;22.10;99.90;;;;;;5083120;28;20021;-80
2022/03/07 07:22:42;;;;;;;3.00;1.08;;;22.10;99.90;;;;;;5085410;28;20556;-80
2022/03/07 07:25:10;;;;;;;1.92;0.70;;;22.00;99.90;;;;;;5085973;28;20105;-85
2022/03/07 07:27:38;;;;;;;3.67;0.95;;;22.00;99.90;;;;;;5075422;28;20386;-77
2022/03/07 07:30:08;;;;;;;7.15;1.63;;;22.00;99.90;;;;;;5077168;28;20036;-80
2022/03/07 07:32:38;;;;;;;3.80;1.08;;;22.00;99.90;;;;;;5079134;28;20095;-78
2022/03/07 07:35:07;;;;;;;2.53;0.60;;;21.90;99.90;;;;;;5084600;28;20016;-78
2022/03/07 07:37:35;;;;;;;0.60;0.28;;;21.70;99.90;;;;;;5089264;28;20035;-80
2022/03/07 07:40:03;;;;;;;0.55;0.30;;;21.50;99.90;;;;;;5091398;28;20031;-79
2022/03/07 07:42:31;;;;;;;1.70;0.93;;;21.50;99.90;;;;;;5091754;28;20066;-78
2022/03/07 07:44:58;;;;;;;17.15;1.23;;;21.40;99.90;;;;;;5090323;28;20102;-76
2022/03/07 07:47:25;;;;;;;4.78;0.90;;;21.30;99.90;;;;;;5092900;28;20065;-75
2022/03/07 07:49:52;;;;;;;2.28;0.60;;;21.20;99.90;;;;;;5092734;28;20040;-78
2022/03/07 07:52:20;;;;;;;2.72;0.60;;;21.30;99.90;;;;;;5092653;28;20024;-75
2022/03/07 07:54:47;;;;;;;2.38;0.70;;;21.40;99.90;;;;;;5092684;28;20043;-75
2022/03/07 07:57:14;;;;;;;1.10;0.30;;;21.50;99.90;;;;;;5092600;28;20020;-76
2022/03/07 07:59:42;;;;;;;2.70;0.60;;;21.50;99.90;;;;;;5091180;28;20115;-76
2022/03/07 08:02:09;;;;;;;1.20;0.30;;;21.60;99.90;;;;;;5092342;28;20020;-75
2022/03/07 08:04:36;;;;;;;2.15;1.17;;;21.60;99.90;;;;;;5076073;28;20038;-83
2022/03/07 08:07:04;;;;;;;1.73;0.55;;;21.60;99.90;;;;;;5092668;28;20016;-75
2022/03/07 08:09:31;;;;;;;1.10;0.75;;;21.70;99.90;;;;;;5092546;28;20068;-75
2022/03/07 08:11:58;;;;;;;3.75;0.95;;;21.60;99.90;;;;;;5092020;28;20046;-77
2022/03/07 08:14:26;;;;;;;2.70;0.60;;;21.70;99.90;;;;;;5090544;28;20669;-76
2022/03/07 08:16:54;;;;;;;2.08;0.57;;;21.70;99.90;;;;;;5091427;28;20020;-75
2022/03/07 08:19:21;;;;;;;2.72;0.70;;;21.70;99.90;;;;;;5092394;28;20040;-76
2022/03/07 08:21:48;;;;;;;4.15;1.05;;;21.80;99.90;;;;;;5087533;28;20012;-76
2022/03/07 08:24:15;;;;;;;7.38;1.40;;;21.80;99.90;;;;;;5073933;28;20078;-78
2022/03/07 08:26:43;;;;;;;5.28;1.00;;;21.80;99.90;;;;;;5071392;28;20031;-75
2022/03/07 08:29:10;;;;;;;6.72;1.10;;;21.80;99.90;;;;;;5071047;28;20033;-75
2022/03/07 08:31:37;;;;;;;4.00;1.00;;;21.80;99.90;;;;;;5070898;28;20017;-76
2022/03/07 08:34:05;;;;;;;3.97;1.27;;;21.80;99.90;;;;;;5071272;28;20051;-76
2022/03/07 08:36:33;;;;;;;5.13;1.10;;;21.80;99.90;;;;;;5075294;28;20024;-78
2022/03/07 08:39:00;;;;;;;5.20;1.35;;;21.80;99.90;;;;;;5071636;28;20035;-79
2022/03/07 08:41:28;;;;;;;6.20;1.92;;;21.80;99.90;;;;;;5071872;28;20029;-81
2022/03/07 08:43:55;;;;;;;5.22;1.38;;;21.80;99.90;;;;;;5072296;28;20027;-78
2022/03/07 08:46:24;;;;;;;5.57;1.20;;;21.70;99.90;;;;;;5071905;28;20111;-78
2022/03/07 08:48:52;;;;;;;4.00;1.55;;;21.70;99.90;;;;;;5070156;28;20131;-79
2022/03/07 08:51:19;;;;;;;4.30;1.40;;;21.70;99.90;;;;;;5070044;28;20023;-80
2022/03/07 08:53:47;;;;;;;6.93;1.63;;;21.60;99.90;;;;;;5069940;28;20051;-76
2022/03/07 08:56:15;;;;;;;7.18;1.55;;;21.60;99.90;;;;;;5071612;28;20028;-76
2022/03/07 08:58:42;;;;;;;4.63;1.98;;;21.70;99.90;;;;;;5071262;28;20082;-79
2022/03/07 09:01:09;;;;;;;3.53;1.23;;;21.60;99.90;;;;;;5071671;28;20062;-81
2022/03/07 09:03:37;;;;;;;5.07;1.33;;;21.70;99.90;;;;;;5071168;28;20025;-76
2022/03/07 09:06:04;;;;;;;7.50;1.95;;;21.70;99.90;;;;;;5071645;28;20439;-76
2022/03/07 09:08:32;;;;;;;2.15;1.08;;;21.60;99.90;;;;;;5073545;28;20066;-76
2022/03/07 09:10:59;;;;;;;2.90;1.02;;;21.60;99.90;;;;;;5072123;28;20027;-77
2022/03/07 09:13:26;;;;;;;3.95;1.30;;;21.60;99.90;;;;;;5074385;28;20036;-76
2022/03/07 09:15:55;;;;;;;5.03;1.10;;;21.60;99.90;;;;;;5075406;28;20503;-79
2022/03/07 09:18:25;;;;;;;4.47;1.40;;;21.60;99.90;;;;;;5073916;28;20021;-76
2022/03/07 09:20:54;;;;;;;3.42;1.00;;;21.50;99.90;;;;;;5074076;28;20016;-78
2022/03/07 09:23:22;;;;;;;7.68;1.25;;;21.50;99.90;;;;;;5074270;28;20025;-83
2022/03/07 09:25:49;;;;;;;4.43;1.20;;;21.40;99.90;;;;;;5073948;28;20604;-77
2022/03/07 09:28:16;;;;;;;5.38;1.25;;;21.40;99.90;;;;;;5075431;28;21050;-76
2022/03/07 09:30:44;;;;;;;5.78;1.73;;;21.40;99.90;;;;;;5074362;28;20024;-76
2022/03/07 09:33:11;;;;;;;2.33;1.00;;;21.40;99.90;;;;;;5075268;28;20095;-76
2022/03/07 09:35:38;;;;;;;4.13;0.88;;;21.50;99.90;;;;;;5073871;28;20024;-79
2022/03/07 09:38:06;;;;;;;5.18;1.52;;;21.50;99.90;;;;;;5074639;28;20020;-78
2022/03/07 09:40:33;;;;;;;4.53;1.13;;;21.50;99.90;;;;;;5075409;28;20496;-77
2022/03/07 09:43:01;;;;;;;6.72;1.33;;;21.50;99.90;;;;;;5077516;28;20037;-77
2022/03/07 09:45:28;;;;;;;3.65;1.45;;;21.50;99.90;;;;;;5074658;28;20017;-77
2022/03/07 09:47:58;;;;;;;4.50;1.77;;;21.50;99.90;;;;;;5074406;28;20027;-76
2022/03/07 09:50:26;;;;;;;7.50;1.50;;;21.50;99.90;;;;;;5075292;28;20397;-76
2022/03/07 09:52:56;;;;;;;4.90;1.73;;;21.50;99.90;;;;;;5074942;28;20043;-76
2022/03/07 09:55:24;;;;;;;4.22;1.63;;;21.50;99.90;;;;;;5074776;28;20024;-81
2022/03/07 09:57:51;;;;;;;4.85;1.80;;;21.50;99.90;;;;;;5087759;28;20020;-77
2022/03/07 10:00:19;;;;;;;5.32;2.22;;;21.60;99.90;;;;;;5080385;28;20103;-77
2022/03/07 10:02:59;;;;;;;3.38;1.80;;;21.60;99.90;;;;;;5074996;28;20013;-78
2022/03/07 10:05:34;;;;;;;3.70;1.40;;;21.60;99.90;;;;;;5074522;28;20025;-78
2022/03/07 10:08:02;;;;;;;6.90;1.60;;;21.50;99.90;;;;;;5074811;28;20016;-81
2022/03/07 10:10:32;;;;;;;5.28;1.83;;;21.50;99.90;;;;;;5075122;28;20036;-83
2022/03/07 10:13:07;;;;;;;3.65;1.27;;;21.50;99.90;;;;;;5073125;28;20021;-82
2022/03/07 10:15:35;;;;;;;7.43;1.65;;;21.50;99.90;;;;;;5074196;28;20020;-82
2022/03/07 10:18:03;;;;;;;4.82;1.23;;;21.50;99.90;;;;;;5074087;28;20514;-80
2022/03/07 10:20:31;;;;;;;6.13;1.70;;;21.50;99.90;;;;;;5075616;28;20110;-81
2022/03/07 10:23:01;;;;;;;4.07;1.65;;;21.50;99.90;;;;;;5072143;28;20024;-78
2022/03/07 10:25:31;;;;;;;2.65;1.52;;;21.60;99.90;;;;;;5073884;28;20021;-80
2022/03/07 10:28:02;;;;;;;3.55;2.20;;;21.60;99.90;;;;;;5073269;28;20408;-81
2022/03/07 10:30:33;;;;;;;5.18;1.75;;;21.50;99.90;;;;;;5075113;28;20754;-80
2022/03/07 10:33:12;;;;;;;7.90;2.65;;;21.50;99.90;;;;;;5074177;28;20108;-78
2022/03/07 10:35:44;;;;;;;12.82;2.25;;;21.50;99.90;;;;;;5074098;28;20366;-79
2022/03/07 10:38:22;;;;;;;3.88;2.00;;;21.50;99.90;;;;;;5074971;28;20024;-83
2022/03/07 10:40:54;;;;;;;8.68;1.58;;;21.50;99.90;;;;;;5073632;28;20097;-81
2022/03/07 10:43:23;;;;;;;2.15;1.35;;;21.50;99.90;;;;;;5074448;28;20016;-78
2022/03/07 10:45:53;;;;;;;3.17;1.20;;;21.50;99.90;;;;;;5073260;28;20035;-86
2022/03/07 10:48:21;;;;;;;2.47;1.35;;;21.50;99.90;;;;;;5073281;28;20427;-81
2022/03/07 10:50:52;;;;;;;3.58;1.00;;;21.50;99.90;;;;;;5073874;28;20048;-84
2022/03/07 10:53:19;;;;;;;1.95;1.15;;;21.50;99.90;;;;;;5073662;28;20016;-81
2022/03/07 10:55:58;;;;;;;2.00;0.88;;;21.50;99.90;;;;;;5087113;28;20032;-78
2022/03/07 10:58:28;;;;;;;2.22;1.23;;;21.40;99.90;;;;;;5087379;28;20039;-79
2022/03/07 11:00:59;;;;;;;1.75;1.38;;;21.50;99.90;;;;;;5080913;28;20008;-76
2022/03/07 11:03:29;;;;;;;5.80;1.13;;;21.50;99.90;;;;;;5072829;28;20504;-79
2022/03/07 11:05:57;;;;;;;4.10;1.13;;;21.50;99.90;;;;;;5086602;28;20380;-75
2022/03/07 11:08:26;;;;;;;1.65;1.00;;;21.50;99.90;;;;;;5090599;28;20035;-76
2022/03/07 11:10:58;;;;;;;1.27;0.55;;;21.50;99.90;;;;;;5090598;28;20511;-75
2022/03/07 11:13:29;;;;;;;3.28;0.52;;;21.40;99.90;;;;;;5091308;28;20435;-76
2022/03/07 11:15:59;;;;;;;3.65;0.98;;;21.40;99.90;;;;;;5084581;28;20485;-81
2022/03/07 11:18:28;;;;;;;1.20;0.85;;;21.40;99.90;;;;;;5091717;28;20024;-77
2022/03/07 11:20:57;;;;;;;1.27;0.60;;;21.30;99.90;;;;;;5090321;28;20023;-79
2022/03/07 11:23:26;;;;;;;2.15;0.68;;;21.30;99.90;;;;;;5093050;28;20051;-82
2022/03/07 11:25:57;;;;;;;2.42;1.20;;;21.30;99.90;;;;;;5092930;28;20024;-76
2022/03/07 11:28:27;;;;;;;4.25;1.08;;;21.40;99.90;;;;;;5092696;28;20028;-75
2022/03/07 11:30:55;;;;;;;4.07;1.45;;;21.30;99.90;;;;;;5089790;28;20028;-79
2022/03/07 11:33:29;;;;;;;2.72;1.33;;;21.30;99.90;;;;;;5091713;28;20027;-75
2022/03/07 11:35:57;;;;;;;1.90;1.58;;;21.30;99.90;;;;;;5090559;28;20031;-77
2022/03/07 11:38:35;;;;;;;1.67;1.08;;;21.30;99.90;;;;;;5091306;28;20024;-86
2022/03/07 11:41:14;;;;;;;1.52;0.90;;;21.30;99.90;;;;;;5090941;28;20477;-81
2022/03/07 11:44:00;;;;;;;2.17;0.95;;;21.30;99.90;;;;;;5090419;28;20485;-83
2022/03/07 11:46:37;;;;;;;4.50;0.85;;;21.30;99.90;;;;;;5091265;28;20503;-78
2022/03/07 11:49:07;;;;;;;2.35;0.95;;;21.30;99.90;;;;;;5090735;28;20100;-82
2022/03/07 11:51:37;;;;;;;1.38;0.80;;;21.30;99.90;;;;;;5091946;28;20016;-84
2022/03/07 11:54:18;;;;;;;0.98;0.70;;;21.30;99.90;;;;;;5092223;28;20544;-83
2022/03/07 11:56:45;;;;;;;1.17;0.77;;;21.30;99.90;;;;;;5089478;28;20032;-81
2022/03/07 11:59:13;;;;;;;1.60;0.70;;;21.20;99.90;;;;;;5092551;28;20076;-82
2022/03/07 12:01:52;;;;;;;1.30;0.43;;;21.20;99.90;;;;;;5092855;28;20503;-84
2022/03/07 12:04:20;;;;;;;1.35;0.50;;;21.20;99.90;;;;;;5093122;28;20020;-84
2022/03/07 12:06:50;;;;;;;0.88;0.60;;;21.20;99.90;;;;;;5092979;28;20028;-85
2022/03/07 12:09:36;;;;;;;0.70;0.60;;;21.20;99.90;;;;;;5091424;28;20133;-86
2022/03/07 12:12:07;;;;;;;1.25;0.50;;;21.30;99.90;;;;;;5093392;28;20350;-86
2022/03/07 12:14:40;;;;;;;1.55;0.68;;;21.20;99.90;;;;;;5093416;28;20016;-87
2022/03/07 12:17:19;;;;;;;2.20;0.60;;;21.20;99.90;;;;;;5093410;28;20023;-81
2022/03/07 12:19:55;;;;;;;2.13;0.73;;;21.30;99.90;;;;;;5090949;28;20031;-84
2022/03/07 12:22:26;;;;;;;1.55;0.50;;;21.20;99.90;;;;;;5089043;28;20028;-74
2022/03/07 12:24:57;;;;;;;0.98;0.40;;;21.20;99.90;;;;;;5093145;28;20060;-74
2022/03/07 12:27:25;;;;;;;0.80;0.40;;;21.20;99.90;;;;;;5093118;28;20061;-80
2022/03/07 12:29:53;;;;;;;0.75;0.38;;;21.10;99.90;;;;;;5092669;28;20035;-75
2022/03/07 12:32:21;;;;;;;0.50;0.32;;;21.10;99.90;;;;;;5093732;28;20016;-76
2022/03/07 12:34:49;;;;;;;0.82;0.30;;;21.10;99.90;;;;;;5093791;28;20028;-76
2022/03/07 12:37:22;;;;;;;0.77;0.45;;;21.10;99.90;;;;;;5093653;28;20016;-76
2022/03/07 12:39:57;;;;;;;2.17;0.60;;;21.10;99.90;;;;;;5093663;28;20036;-77
2022/03/07 12:42:38;;;;;;;0.60;0.50;;;21.10;99.90;;;;;;5093642;28;20145;-75
2022/03/07 12:45:07;;;;;;;0.80;0.70;;;21.10;99.90;;;;;;5093760;28;20594;-75
2022/03/07 12:47:37;;;;;;;3.17;0.80;;;21.10;99.90;;;;;;5093415;28;20479;-76
2022/03/07 12:50:07;;;;;;;3.65;0.88;;;21.10;99.90;;;;;;5093230;28;20408;-86
2022/03/07 12:52:37;;;;;;;1.30;1.05;;;21.10;99.90;;;;;;5093705;28;20027;-81